createdAt,value
2017-09-04T00:00:04.057Z,12.8
2017-09-04T00:01:03.951Z,12.78
2017-09-04T00:02:03.632Z,12.83
2017-09-04T00:03:03.936Z,12.81
2017-09-04T00:04:03.619Z,12.84
2017-09-04T00:05:03.302Z,12.98
2017-09-04T00:06:03.608Z,12.99
2017-09-04T00:07:03.919Z,13.03
2017-09-04T00:08:03.597Z,12.98
2017-09-04T00:09:03.280Z,13.01
2017-09-04T00:10:03.593Z,13.03
2017-09-04T00:11:03.268Z,13.05
2017-09-04T00:12:03.572Z,13.06
2017-09-04T00:13:03.568Z,13.08
2017-09-04T00:14:03.560Z,13.06
2017-09-04T00:15:03.244Z,12.93
2017-09-04T00:16:03.236Z,12.95
2017-09-04T00:17:03.554Z,12.91
2017-09-04T00:18:03.543Z,12.93
2017-09-04T00:19:03.219Z,12.88
2017-09-04T00:20:03.527Z,12.93
2017-09-04T00:21:03.522Z,12.86
2017-09-04T00:22:03.205Z,12.86
2017-09-04T00:23:03.826Z,12.81
2017-09-04T00:24:03.504Z,12.73
2017-09-04T00:25:03.814Z,12.72
2017-09-04T00:26:03.817Z,12.7
2017-09-04T00:27:03.491Z,12.86
2017-09-04T00:28:03.481Z,12.73
2017-09-04T00:29:03.476Z,12.84
2017-09-04T00:30:03.158Z,12.88
2017-09-04T00:31:03.780Z,12.83
2017-09-04T00:32:03.458Z,12.69
2017-09-04T00:33:03.764Z,12.68
2017-09-04T00:34:03.760Z,12.68
2017-09-04T00:35:03.542Z,12.73
2017-09-04T00:36:03.435Z,12.72
2017-09-04T00:37:03.219Z,12.61
2017-09-04T00:38:03.742Z,12.61
2017-09-04T00:39:03.735Z,12.62
2017-09-04T00:40:03.419Z,12.57
2017-09-04T00:41:03.722Z,12.57
2017-09-04T00:42:03.718Z,12.55
2017-09-04T00:43:03.396Z,12.5
2017-09-04T00:44:03.704Z,12.58
2017-09-04T00:45:03.797Z,12.57
2017-09-04T00:46:03.377Z,12.61
2017-09-04T00:47:03.374Z,12.61
2017-09-04T00:48:03.056Z,12.57
2017-09-04T00:49:03.775Z,12.54
2017-09-04T00:50:03.669Z,12.53
2017-09-04T00:51:03.683Z,12.51
2017-09-04T00:52:03.342Z,12.48
2017-09-04T00:53:03.028Z,12.54
2017-09-04T00:54:03.649Z,12.48
2017-09-04T00:55:03.325Z,12.47
2017-09-04T00:56:03.323Z,12.44
2017-09-04T00:57:03.317Z,12.44
2017-09-04T00:58:03.311Z,12.4
2017-09-04T00:59:03.312Z,12.43
2017-09-04T01:00:03.612Z,12.39
2017-09-04T01:01:03.606Z,12.37
2017-09-04T01:02:03.602Z,12.36
2017-09-04T01:03:03.590Z,12.48
2017-09-04T01:04:03.690Z,12.45
2017-09-04T01:05:03.268Z,12.47
2017-09-04T01:06:03.265Z,12.4
2017-09-04T01:07:02.947Z,12.47
2017-09-04T01:08:03.251Z,12.43
2017-09-04T01:09:03.562Z,12.44
2017-09-04T01:10:03.557Z,12.44
2017-09-04T01:11:02.922Z,12.47
2017-09-04T01:12:03.228Z,12.5
2017-09-04T01:13:03.224Z,12.47
2017-09-04T01:14:03.547Z,12.37
2017-09-04T01:15:03.214Z,12.48
2017-09-04T01:16:03.521Z,12.44
2017-09-04T01:17:03.300Z,12.4
2017-09-04T01:18:03.505Z,12.4
2017-09-04T01:19:03.191Z,12.4
2017-09-04T01:20:02.866Z,12.48
2017-09-04T01:21:03.491Z,12.37
2017-09-04T01:22:03.169Z,12.36
2017-09-04T01:23:03.166Z,12.35
2017-09-04T01:24:02.848Z,12.33
2017-09-04T01:25:03.464Z,12.32
2017-09-04T01:26:03.465Z,12.23
2017-09-04T01:27:03.142Z,12.25
2017-09-04T01:28:03.136Z,12.28
2017-09-04T01:29:03.132Z,12.18
2017-09-04T01:30:02.812Z,12.25
2017-09-04T01:31:03.535Z,12.12
2017-09-04T01:32:03.427Z,12.18
2017-09-04T01:33:03.109Z,12.23
2017-09-04T01:34:03.105Z,12.08
2017-09-04T01:35:02.783Z,12.11
2017-09-04T01:36:03.088Z,11.99
2017-09-04T01:37:02.773Z,11.99
2017-09-04T01:38:03.080Z,12
2017-09-04T01:39:03.074Z,11.97
2017-09-04T01:40:03.383Z,12.03
2017-09-04T01:41:02.748Z,12.02
2017-09-04T01:42:02.742Z,12.05
2017-09-04T01:43:03.364Z,11.93
2017-09-04T01:44:03.357Z,12.03
2017-09-04T01:45:03.040Z,11.95
2017-09-04T01:46:03.132Z,12.12
2017-09-04T01:47:02.712Z,12
2017-09-04T01:48:02.705Z,12.03
2017-09-04T01:49:02.700Z,12.03
2017-09-04T01:50:03.009Z,11.99
2017-09-04T01:51:03.003Z,11.97
2017-09-04T01:52:03.094Z,12.03
2017-09-04T01:53:02.990Z,11.86
2017-09-04T01:54:03.293Z,11.95
2017-09-04T01:55:02.978Z,11.95
2017-09-04T01:56:03.387Z,11.89
2017-09-04T01:57:02.752Z,11.89
2017-09-04T01:58:03.060Z,11.74
2017-09-04T01:59:02.956Z,11.78
2017-09-04T02:00:03.263Z,11.77
2017-09-04T02:01:02.633Z,11.78
2017-09-04T02:02:02.623Z,11.76
2017-09-04T02:03:02.931Z,11.81
2017-09-04T02:04:02.925Z,11.71
2017-09-04T02:05:02.918Z,11.76
2017-09-04T02:06:02.598Z,11.77
2017-09-04T02:07:02.596Z,11.8
2017-09-04T02:08:02.900Z,11.76
2017-09-04T02:09:02.895Z,11.81
2017-09-04T02:10:02.892Z,11.76
2017-09-04T02:11:02.572Z,11.76
2017-09-04T02:12:02.878Z,11.74
2017-09-04T02:13:02.874Z,11.74
2017-09-04T02:14:02.866Z,11.76
2017-09-04T02:15:02.861Z,11.73
2017-09-04T02:16:02.856Z,11.76
2017-09-04T02:17:02.859Z,11.78
2017-09-04T02:18:03.157Z,11.76
2017-09-04T02:19:03.150Z,11.67
2017-09-04T02:20:02.940Z,11.68
2017-09-04T02:21:03.169Z,11.67
2017-09-04T02:22:02.918Z,11.62
2017-09-04T02:23:02.499Z,11.7
2017-09-04T02:24:02.593Z,11.63
2017-09-04T02:25:02.801Z,11.62
2017-09-04T02:26:02.479Z,11.59
2017-09-04T02:27:02.886Z,11.62
2017-09-04T02:28:02.783Z,11.7
2017-09-04T02:29:03.090Z,11.65
2017-09-04T02:30:02.769Z,11.63
2017-09-04T02:31:02.453Z,11.68
2017-09-04T02:32:02.547Z,11.58
2017-09-04T02:33:03.070Z,11.56
2017-09-04T02:34:03.063Z,11.51
2017-09-04T02:35:02.431Z,11.52
2017-09-04T02:36:02.733Z,11.49
2017-09-04T02:37:02.730Z,11.49
2017-09-04T02:38:03.145Z,11.53
2017-09-04T02:39:03.037Z,11.51
2017-09-04T02:40:03.040Z,11.49
2017-09-04T02:41:02.713Z,11.58
2017-09-04T02:42:02.388Z,11.67
2017-09-04T02:43:03.010Z,11.62
2017-09-04T02:44:02.378Z,11.59
2017-09-04T02:45:03.004Z,11.56
2017-09-04T02:46:02.365Z,11.63
2017-09-04T02:47:02.985Z,11.52
2017-09-04T02:48:02.977Z,11.58
2017-09-04T02:49:02.344Z,11.52
2017-09-04T02:50:02.964Z,11.55
2017-09-04T02:51:02.649Z,11.52
2017-09-04T02:52:02.950Z,11.49
2017-09-04T02:53:02.421Z,11.58
2017-09-04T02:54:03.046Z,11.55
2017-09-04T02:55:02.623Z,11.53
2017-09-04T02:56:02.651Z,11.53
2017-09-04T02:57:02.606Z,11.52
2017-09-04T02:58:02.923Z,11.44
2017-09-04T02:59:03.012Z,11.41
2017-09-04T03:00:02.592Z,11.37
2017-09-04T03:01:02.280Z,11.37
2017-09-04T03:02:02.268Z,11.35
2017-09-04T03:03:02.576Z,11.38
2017-09-04T03:04:02.984Z,11.3
2017-09-04T03:05:02.562Z,11.16
2017-09-04T03:06:02.556Z,11.27
2017-09-04T03:07:02.554Z,11.25
2017-09-04T03:08:02.654Z,11.3
2017-09-04T03:09:02.224Z,11.23
2017-09-04T03:10:02.538Z,11.23
2017-09-04T03:11:02.312Z,11.22
2017-09-04T03:12:02.518Z,11.19
2017-09-04T03:13:02.201Z,11.19
2017-09-04T03:14:02.822Z,11.16
2017-09-04T03:15:02.505Z,11.16
2017-09-04T03:16:02.810Z,11.13
2017-09-04T03:17:02.800Z,11.16
2017-09-04T03:18:02.486Z,11.2
2017-09-04T03:19:02.475Z,11.16
2017-09-04T03:20:02.158Z,11.25
2017-09-04T03:21:02.465Z,11.31
2017-09-04T03:22:02.778Z,11.18
2017-09-04T03:23:02.556Z,11.33
2017-09-04T03:24:02.446Z,11.25
2017-09-04T03:25:02.127Z,11.25
2017-09-04T03:26:02.747Z,11.33
2017-09-04T03:27:02.114Z,11.27
2017-09-04T03:28:02.774Z,11.31
2017-09-04T03:29:02.102Z,11.27
2017-09-04T03:30:02.101Z,11.3
2017-09-04T03:31:02.829Z,11.3
2017-09-04T03:32:02.819Z,11.26
2017-09-04T03:33:02.713Z,11.33
2017-09-04T03:34:02.173Z,11.27
2017-09-04T03:35:02.386Z,11.3
2017-09-04T03:36:02.689Z,11.19
2017-09-04T03:37:02.683Z,11.23
2017-09-04T03:38:02.360Z,11.27
2017-09-04T03:39:02.675Z,11.26
2017-09-04T03:40:02.036Z,11.23
2017-09-04T03:41:02.032Z,11.16
2017-09-04T03:42:02.123Z,11.16
2017-09-04T03:43:02.642Z,11.19
2017-09-04T03:44:02.326Z,11.13
2017-09-04T03:45:02.318Z,11.13
2017-09-04T03:46:01.999Z,11.08
2017-09-04T03:47:02.619Z,11.05
2017-09-04T03:48:02.614Z,11.1
2017-09-04T03:49:02.310Z,11.1
2017-09-04T03:50:02.292Z,11.16
2017-09-04T03:51:02.283Z,11.2
2017-09-04T03:52:01.965Z,11.16
2017-09-04T03:53:02.272Z,11.18
2017-09-04T03:54:02.268Z,11.23
2017-09-04T03:55:02.582Z,11.27
2017-09-04T03:56:01.939Z,11.31
2017-09-04T03:57:02.561Z,11.3
2017-09-04T03:58:02.240Z,11.35
2017-09-04T03:59:02.237Z,11.38
2017-09-04T04:00:02.655Z,11.25
2017-09-04T04:01:02.228Z,11.34
2017-09-04T04:02:01.903Z,11.33
2017-09-04T04:03:01.898Z,11.31
2017-09-04T04:04:01.889Z,11.3
2017-09-04T04:05:02.198Z,11.31
2017-09-04T04:06:02.189Z,11.27
2017-09-04T04:07:01.875Z,11.26
2017-09-04T04:08:01.866Z,11.25
2017-09-04T04:09:02.488Z,11.15
2017-09-04T04:10:02.168Z,11.22
2017-09-04T04:11:02.159Z,11.15
2017-09-04T04:12:01.843Z,11.18
2017-09-04T04:13:01.836Z,11.13
2017-09-04T04:14:02.145Z,11.13
2017-09-04T04:15:02.452Z,11.18
2017-09-04T04:16:02.129Z,11.15
2017-09-04T04:17:02.540Z,11.23
2017-09-04T04:18:02.121Z,11.27
2017-09-04T04:19:01.800Z,11.31
2017-09-04T04:20:02.105Z,11.38
2017-09-04T04:21:01.888Z,11.37
2017-09-04T04:22:02.092Z,11.27
2017-09-04T04:23:01.776Z,11.31
2017-09-04T04:24:02.079Z,11.31
2017-09-04T04:25:02.389Z,11.35
2017-09-04T04:26:02.068Z,11.3
2017-09-04T04:27:02.375Z,11.33
2017-09-04T04:28:02.372Z,11.33
2017-09-04T04:29:02.054Z,11.31
2017-09-04T04:30:02.362Z,11.3
2017-09-04T04:31:02.040Z,11.31
2017-09-04T04:32:02.034Z,11.33
2017-09-04T04:33:02.026Z,11.25
2017-09-04T04:34:02.333Z,11.3
2017-09-04T04:35:02.328Z,11.33
2017-09-04T04:36:02.322Z,11.16
2017-09-04T04:37:02.005Z,11.3
2017-09-04T04:38:01.683Z,11.22
2017-09-04T04:39:01.991Z,11.25
2017-09-04T04:40:01.980Z,11.22
2017-09-04T04:41:01.664Z,11.22
2017-09-04T04:42:01.971Z,11.12
2017-09-04T04:43:02.279Z,11.2
2017-09-04T04:44:02.271Z,11.05
2017-09-04T04:45:01.639Z,11.02
2017-09-04T04:46:01.734Z,11.01
2017-09-04T04:47:02.252Z,11.12
2017-09-04T04:48:01.933Z,11.07
2017-09-04T04:49:01.615Z,11.2
2017-09-04T04:50:02.231Z,11.23
2017-09-04T04:51:01.916Z,11.23
2017-09-04T04:52:01.911Z,11.27
2017-09-04T04:53:01.590Z,11.23
2017-09-04T04:54:02.233Z,11.2
2017-09-04T04:55:01.576Z,11.2
2017-09-04T04:56:02.191Z,11.19
2017-09-04T04:57:01.874Z,11.33
2017-09-04T04:58:01.868Z,11.31
2017-09-04T04:59:01.864Z,11.2
2017-09-04T05:00:01.547Z,11.15
2017-09-04T05:01:02.170Z,11.18
2017-09-04T05:02:02.256Z,11.19
2017-09-04T05:03:01.941Z,11.2
2017-09-04T05:04:01.835Z,11.22
2017-09-04T05:05:01.825Z,11.22
2017-09-04T05:06:01.507Z,11.23
2017-09-04T05:07:01.819Z,11.23
2017-09-04T05:08:02.126Z,11.26
2017-09-04T05:09:01.489Z,11.25
2017-09-04T05:10:02.209Z,11.26
2017-09-04T05:11:01.792Z,11.27
2017-09-04T05:12:01.885Z,11.3
2017-09-04T05:13:01.779Z,11.22
2017-09-04T05:14:01.774Z,11.27
2017-09-04T05:15:02.080Z,11.26
2017-09-04T05:16:02.071Z,11.23
2017-09-04T05:17:01.443Z,11.25
2017-09-04T05:18:01.750Z,11.22
2017-09-04T05:19:01.750Z,11.3
2017-09-04T05:20:01.737Z,11.26
2017-09-04T05:21:02.049Z,11.3
2017-09-04T05:22:01.407Z,11.27
2017-09-04T05:23:01.403Z,11.23
2017-09-04T05:24:01.709Z,11.31
2017-09-04T05:25:02.014Z,11.27
2017-09-04T05:26:01.696Z,11.23
2017-09-04T05:27:01.693Z,11.22
2017-09-04T05:28:01.687Z,11.3
2017-09-04T05:29:01.997Z,11.3
2017-09-04T05:30:01.675Z,11.27
2017-09-04T05:31:01.668Z,11.25
2017-09-04T05:32:01.658Z,11.3
2017-09-04T05:33:01.339Z,11.38
2017-09-04T05:34:01.337Z,11.34
2017-09-04T05:35:02.057Z,11.44
2017-09-04T05:36:01.318Z,11.38
2017-09-04T05:37:01.628Z,11.41
2017-09-04T05:38:01.623Z,11.43
2017-09-04T05:39:01.302Z,11.51
2017-09-04T05:40:01.709Z,11.49
2017-09-04T05:41:01.292Z,11.58
2017-09-04T05:42:01.908Z,11.55
2017-09-04T05:43:01.592Z,11.58
2017-09-04T05:44:01.273Z,11.56
2017-09-04T05:45:01.369Z,11.58
2017-09-04T05:46:01.991Z,11.55
2017-09-04T05:47:01.567Z,11.63
2017-09-04T05:48:01.560Z,11.6
2017-09-04T05:49:01.553Z,11.63
2017-09-04T05:50:01.236Z,11.63
2017-09-04T05:51:01.643Z,11.7
2017-09-04T05:52:01.845Z,11.65
2017-09-04T05:53:01.527Z,11.63
2017-09-04T05:54:01.837Z,11.74
2017-09-04T05:55:01.304Z,11.65
2017-09-04T05:56:01.829Z,11.77
2017-09-04T05:57:01.193Z,11.8
2017-09-04T05:58:01.502Z,11.83
2017-09-04T05:59:01.590Z,11.8
2017-09-04T06:00:01.173Z,11.83
2017-09-04T06:01:01.610Z,11.86
2017-09-04T06:02:01.472Z,11.91
2017-09-04T06:03:01.782Z,11.89
2017-09-04T06:04:01.774Z,11.99
2017-09-04T06:05:01.461Z,12
2017-09-04T06:06:01.765Z,12
2017-09-04T06:07:01.758Z,12.12
2017-09-04T06:08:01.482Z,12.2
2017-09-04T06:09:01.429Z,12.25
2017-09-04T06:10:01.424Z,12.23
2017-09-04T06:11:01.419Z,12.23
2017-09-04T06:12:01.516Z,12.26
2017-09-04T06:13:01.719Z,12.26
2017-09-04T06:14:01.716Z,12.3
2017-09-04T06:15:01.395Z,12.37
2017-09-04T06:16:01.389Z,12.36
2017-09-04T06:17:01.585Z,12.47
2017-09-04T06:18:01.687Z,12.44
2017-09-04T06:19:01.473Z,12.47
2017-09-04T06:20:01.364Z,12.58
2017-09-04T06:21:01.356Z,12.58
2017-09-04T06:22:01.448Z,12.66
2017-09-04T06:23:01.344Z,12.73
2017-09-04T06:24:01.344Z,12.7
2017-09-04T06:25:01.661Z,12.66
2017-09-04T06:26:01.012Z,12.69
2017-09-04T06:27:01.322Z,12.7
2017-09-04T06:28:01.312Z,12.73
2017-09-04T06:29:01.306Z,12.75
2017-09-04T06:30:01.297Z,12.68
2017-09-04T06:31:01.608Z,12.53
2017-09-04T06:32:00.976Z,12.58
2017-09-04T06:33:01.592Z,12.55
2017-09-04T06:34:01.380Z,12.58
2017-09-04T06:35:01.271Z,12.62
2017-09-04T06:36:01.579Z,12.58
2017-09-04T06:37:01.570Z,12.57
2017-09-04T06:38:01.248Z,12.55
2017-09-04T06:39:01.558Z,12.55
2017-09-04T06:40:01.555Z,12.55
2017-09-04T06:41:01.548Z,12.54
2017-09-04T06:42:01.233Z,12.55
2017-09-04T06:43:00.909Z,12.58
2017-09-04T06:44:01.002Z,12.58
2017-09-04T06:45:01.214Z,12.58
2017-09-04T06:46:01.203Z,12.68
2017-09-04T06:47:00.887Z,12.66
2017-09-04T06:48:00.879Z,12.72
2017-09-04T06:49:01.497Z,12.72
2017-09-04T06:50:00.861Z,12.87
2017-09-04T06:51:01.274Z,12.86
2017-09-04T06:52:00.852Z,12.93
2017-09-04T06:53:01.470Z,13.03
2017-09-04T06:54:00.838Z,13.17
2017-09-04T06:55:00.831Z,13.2
2017-09-04T06:56:01.458Z,13.16
2017-09-04T06:57:01.134Z,13.27
2017-09-04T06:58:01.441Z,13.17
2017-09-04T06:59:00.807Z,13.2
2017-09-04T07:00:01.435Z,13.09
2017-09-04T07:01:01.110Z,13.16
2017-09-04T07:02:01.456Z,13.12
2017-09-04T07:03:01.098Z,13.09
2017-09-04T07:04:01.090Z,13.11
2017-09-04T07:05:01.092Z,13.08
2017-09-04T07:06:01.080Z,13.08
2017-09-04T07:07:01.388Z,13.09
2017-09-04T07:08:01.381Z,12.99
2017-09-04T07:09:01.059Z,13.13
2017-09-04T07:10:01.055Z,13.17
2017-09-04T07:11:01.360Z,13.17
2017-09-04T07:12:01.356Z,13.27
2017-09-04T07:13:01.348Z,13.16
2017-09-04T07:14:01.030Z,13.24
2017-09-04T07:15:01.336Z,13.26
2017-09-04T07:16:01.329Z,13.26
2017-09-04T07:17:01.323Z,13.26
2017-09-04T07:18:00.691Z,13.27
2017-09-04T07:19:00.687Z,13.33
2017-09-04T07:20:00.681Z,13.36
2017-09-04T07:21:00.673Z,13.39
2017-09-04T07:22:00.977Z,13.36
2017-09-04T07:23:00.662Z,13.39
2017-09-04T07:24:00.656Z,13.45
2017-09-04T07:25:00.959Z,13.45
2017-09-04T07:26:00.742Z,13.47
2017-09-04T07:27:00.952Z,13.54
2017-09-04T07:28:00.632Z,13.55
2017-09-04T07:29:00.624Z,13.55
2017-09-04T07:30:01.250Z,13.61
2017-09-04T07:31:00.611Z,13.58
2017-09-04T07:32:00.915Z,13.64
2017-09-04T07:33:01.223Z,13.64
2017-09-04T07:34:00.905Z,13.67
2017-09-04T07:35:00.900Z,13.67
2017-09-04T07:36:01.206Z,13.61
2017-09-04T07:37:00.893Z,13.65
2017-09-04T07:38:00.884Z,13.61
2017-09-04T07:39:00.565Z,13.6
2017-09-04T07:40:00.873Z,13.5
2017-09-04T07:41:00.861Z,13.58
2017-09-04T07:42:00.646Z,13.58
2017-09-04T07:43:00.540Z,13.61
2017-09-04T07:44:00.853Z,13.65
2017-09-04T07:45:00.842Z,13.62
2017-09-04T07:46:00.839Z,13.67
2017-09-04T07:47:00.930Z,13.73
2017-09-04T07:48:00.824Z,13.82
2017-09-04T07:49:00.818Z,13.86
2017-09-04T07:50:00.810Z,13.78
2017-09-04T07:51:01.116Z,13.91
2017-09-04T07:52:00.801Z,13.79
2017-09-04T07:53:00.581Z,13.78
2017-09-04T07:54:00.474Z,13.79
2017-09-04T07:55:01.095Z,13.85
2017-09-04T07:56:01.088Z,13.79
2017-09-04T07:57:01.085Z,13.79
2017-09-04T07:58:00.764Z,13.73
2017-09-04T07:59:00.759Z,13.68
2017-09-04T08:00:01.159Z,13.65
2017-09-04T08:01:00.746Z,13.62
2017-09-04T08:02:00.740Z,13.55
2017-09-04T08:03:00.418Z,13.61
2017-09-04T08:04:00.510Z,13.65
2017-09-04T08:05:01.142Z,13.61
2017-09-04T08:06:00.398Z,13.62
2017-09-04T08:07:00.710Z,13.71
2017-09-04T08:08:00.702Z,13.75
2017-09-04T08:09:00.695Z,13.71
2017-09-04T08:10:01.007Z,13.7
2017-09-04T08:11:00.684Z,13.62
2017-09-04T08:12:00.988Z,13.61
2017-09-04T08:13:00.983Z,13.61
2017-09-04T08:14:00.353Z,13.62
2017-09-04T08:15:00.973Z,13.62
2017-09-04T08:16:00.651Z,13.62
2017-09-04T08:17:00.963Z,13.68
2017-09-04T08:18:00.956Z,13.61
2017-09-04T08:19:00.672Z,13.62
2017-09-04T08:20:00.936Z,13.75
2017-09-04T08:21:00.941Z,13.78
2017-09-04T08:22:00.305Z,13.76
2017-09-04T08:23:00.922Z,13.73
2017-09-04T08:24:00.292Z,13.73
2017-09-04T08:25:00.282Z,13.78
2017-09-04T08:26:00.593Z,13.79
2017-09-04T08:27:00.584Z,13.94
2017-09-04T08:28:00.890Z,13.98
2017-09-04T08:29:00.264Z,14.04
2017-09-04T08:30:00.568Z,14.08
2017-09-04T08:31:00.248Z,14.2
2017-09-04T08:32:00.555Z,14.26
2017-09-04T08:33:00.556Z,14.23
2017-09-04T08:34:00.543Z,14.25
2017-09-04T08:35:00.850Z,14.37
2017-09-04T08:36:00.630Z,14.36
2017-09-04T08:37:00.842Z,14.48
2017-09-04T08:38:00.832Z,14.53
2017-09-04T08:39:00.201Z,14.58
2017-09-04T08:40:00.920Z,14.44
2017-09-04T08:41:00.187Z,14.49
2017-09-04T08:42:00.497Z,14.48
2017-09-04T08:43:00.487Z,14.49
2017-09-04T08:44:00.797Z,14.44
2017-09-04T08:45:00.583Z,14.45
2017-09-04T08:46:00.158Z,14.48
2017-09-04T08:47:00.461Z,14.51
2017-09-04T08:48:00.466Z,14.55
2017-09-04T08:49:00.773Z,14.61
2017-09-04T08:50:00.447Z,14.59
2017-09-04T08:51:00.445Z,14.66
2017-09-04T08:52:00.434Z,14.77
2017-09-04T08:53:00.429Z,14.7
2017-09-04T08:54:00.732Z,14.81
2017-09-04T08:55:00.422Z,14.73
2017-09-04T08:56:00.413Z,14.89
2017-09-04T08:57:00.407Z,14.92
2017-09-04T08:58:00.715Z,15
2017-09-04T08:59:00.397Z,14.97
2017-09-04T09:00:00.388Z,14.97
2017-09-04T09:01:00.384Z,14.89
2017-09-04T09:02:00.062Z,14.86
2017-09-04T09:03:00.371Z,14.85
2017-09-04T09:04:00.680Z,14.78
2017-09-04T09:05:00.670Z,14.81
2017-09-04T09:06:00.668Z,14.79
2017-09-04T09:07:00.757Z,14.73
2017-09-04T09:08:00.339Z,14.82
2017-09-04T09:09:00.439Z,14.86
2017-09-04T09:10:00.325Z,14.82
2017-09-04T09:11:00.109Z,14.89
2017-09-04T09:12:00.732Z,14.96
2017-09-04T09:13:00.314Z,15.14
2017-09-04T09:14:00.621Z,15.02
2017-09-04T09:15:00.301Z,15.11
2017-09-04T09:16:00.395Z,15.11
2017-09-04T09:17:00.291Z,15.14
2017-09-04T09:18:00.596Z,15.12
2017-09-04T09:19:00.599Z,15.17
2017-09-04T09:20:00.274Z,15.11
2017-09-04T09:21:00.583Z,15.1
2017-09-04T09:22:00.262Z,15.11
2017-09-04T09:23:00.569Z,15.14
2017-09-04T09:24:00.562Z,15.1
2017-09-04T09:25:00.242Z,15.22
2017-09-04T09:26:00.553Z,15.25
2017-09-04T09:27:00.228Z,15.22
2017-09-04T09:28:00.542Z,15.3
2017-09-04T09:29:00.531Z,15.35
2017-09-04T09:30:00.526Z,15.36
2017-09-04T09:31:00.520Z,15.44
2017-09-04T09:32:00.201Z,15.41
2017-09-04T09:33:00.511Z,15.35
2017-09-04T09:34:00.191Z,15.43
2017-09-04T09:35:00.502Z,15.47
2017-09-04T09:36:00.176Z,15.5
2017-09-04T09:36:59.957Z,15.48
2017-09-04T09:38:00.168Z,15.45
2017-09-04T09:39:00.156Z,15.45
2017-09-04T09:40:00.154Z,15.5
2017-09-04T09:41:00.149Z,15.55
2017-09-04T09:42:00.141Z,15.59
2017-09-04T09:43:00.448Z,15.6
2017-09-04T09:44:00.441Z,15.7
2017-09-04T09:45:00.435Z,15.72
2017-09-04T09:46:00.429Z,15.75
2017-09-04T09:47:00.109Z,15.65
2017-09-04T09:48:00.418Z,15.72
2017-09-04T09:49:00.414Z,15.67
2017-09-04T09:50:00.411Z,15.7
2017-09-04T09:51:00.402Z,15.72
2017-09-04T09:52:00.082Z,15.76
2017-09-04T09:53:00.076Z,15.73
2017-09-04T09:53:59.761Z,15.8
2017-09-04T09:54:59.751Z,15.88
2017-09-04T09:56:00.373Z,15.9
2017-09-04T09:57:00.054Z,15.99
2017-09-04T09:58:00.051Z,15.88
2017-09-04T09:59:00.351Z,15.9
2017-09-04T10:00:00.037Z,15.98
2017-09-04T10:01:00.345Z,15.98
2017-09-04T10:01:59.713Z,16.1
2017-09-04T10:02:59.703Z,16.21
2017-09-04T10:04:00.431Z,16.24
2017-09-04T10:05:00.007Z,16.31
2017-09-04T10:06:00.002Z,16.37
2017-09-04T10:06:59.996Z,16.43
2017-09-04T10:07:59.986Z,16.43
2017-09-04T10:08:59.984Z,16.44
2017-09-04T10:09:59.977Z,16.5
2017-09-04T10:11:00.285Z,16.43
2017-09-04T10:11:59.968Z,16.47
2017-09-04T10:12:59.960Z,16.54
2017-09-04T10:13:59.954Z,16.55
2017-09-04T10:14:59.949Z,16.54
2017-09-04T10:16:00.257Z,16.51
2017-09-04T10:16:59.658Z,16.58
2017-09-04T10:17:59.641Z,16.5
2017-09-04T10:18:59.612Z,16.59
2017-09-04T10:20:00.232Z,16.58
2017-09-04T10:20:59.604Z,16.55
2017-09-04T10:22:00.226Z,16.62
2017-09-04T10:23:00.005Z,16.65
2017-09-04T10:24:00.212Z,16.69
2017-09-04T10:25:00.207Z,16.73
2017-09-04T10:26:00.201Z,16.73
2017-09-04T10:26:59.876Z,16.79
2017-09-04T10:28:00.191Z,16.82
2017-09-04T10:29:00.190Z,16.98
2017-09-04T10:30:00.180Z,16.91
2017-09-04T10:30:59.860Z,17.1
2017-09-04T10:32:00.163Z,17.02
2017-09-04T10:33:00.164Z,17.01
2017-09-04T10:34:00.181Z,17.05
2017-09-04T10:34:59.837Z,17.09
2017-09-04T10:35:59.829Z,17.04
2017-09-04T10:37:00.135Z,17.17
2017-09-04T10:37:59.503Z,17.17
2017-09-04T10:38:59.909Z,17.14
2017-09-04T10:39:59.809Z,17.23
2017-09-04T10:40:59.488Z,17.32
2017-09-04T10:41:59.482Z,17.38
2017-09-04T10:42:59.786Z,17.34
2017-09-04T10:43:59.471Z,17.42
2017-09-04T10:44:59.463Z,17.41
2017-09-04T10:46:00.085Z,17.41
2017-09-04T10:46:59.452Z,17.49
2017-09-04T10:48:00.179Z,17.54
2017-09-04T10:48:59.755Z,17.57
2017-09-04T10:49:59.446Z,17.59
2017-09-04T10:50:59.744Z,17.69
2017-09-04T10:51:59.739Z,17.65
2017-09-04T10:52:59.831Z,17.71
2017-09-04T10:53:59.728Z,17.82
2017-09-04T10:54:59.723Z,17.82
2017-09-04T10:55:59.410Z,17.95
2017-09-04T10:56:59.711Z,17.95
2017-09-04T10:57:59.706Z,17.94
2017-09-04T10:58:59.698Z,17.98
2017-09-04T11:00:00.003Z,18.06
2017-09-04T11:00:59.787Z,18.12
2017-09-04T11:01:59.680Z,18.12
2017-09-04T11:02:59.674Z,18.16
2017-09-04T11:03:59.985Z,18.24
2017-09-04T11:04:59.668Z,18.26
2017-09-04T11:05:59.661Z,18.26
2017-09-04T11:06:59.340Z,18.16
2017-09-04T11:07:59.962Z,18.3
2017-09-04T11:08:59.644Z,18.34
2017-09-04T11:09:59.637Z,18.42
2017-09-04T11:10:59.941Z,18.48
2017-09-04T11:11:59.942Z,18.43
2017-09-04T11:12:59.306Z,18.48
2017-09-04T11:13:59.300Z,18.46
2017-09-04T11:14:59.609Z,18.51
2017-09-04T11:15:59.289Z,18.53
2017-09-04T11:16:59.911Z,18.49
2017-09-04T11:17:59.588Z,18.53
2017-09-04T11:18:59.587Z,18.61
2017-09-04T11:19:59.577Z,18.63
2017-09-04T11:20:59.264Z,18.64
2017-09-04T11:21:59.980Z,18.63
2017-09-04T11:22:59.565Z,18.73
2017-09-04T11:23:59.248Z,18.68
2017-09-04T11:24:59.555Z,18.7
2017-09-04T11:25:59.549Z,18.68
2017-09-04T11:26:59.540Z,18.67
2017-09-04T11:27:59.849Z,18.74
2017-09-04T11:28:59.536Z,18.7
2017-09-04T11:29:59.522Z,18.78
2017-09-04T11:30:59.835Z,18.7
2017-09-04T11:31:59.520Z,18.67
2017-09-04T11:32:59.509Z,18.63
2017-09-04T11:33:59.702Z,18.85
2017-09-04T11:34:59.599Z,18.78
2017-09-04T11:35:59.502Z,18.82
2017-09-04T11:36:59.486Z,18.79
2017-09-04T11:37:59.481Z,18.82
2017-09-04T11:38:59.476Z,18.71
2017-09-04T11:39:59.883Z,18.82
2017-09-04T11:40:59.463Z,18.83
2017-09-04T11:41:59.775Z,18.79
2017-09-04T11:42:59.456Z,18.89
2017-09-04T11:43:59.449Z,18.91
2017-09-04T11:44:59.129Z,18.97
2017-09-04T11:45:59.438Z,19.16
2017-09-04T11:46:59.535Z,19.3
2017-09-04T11:47:59.741Z,19.47
2017-09-04T11:48:59.424Z,19.62
2017-09-04T11:49:59.726Z,19.59
2017-09-04T11:50:59.198Z,19.6
2017-09-04T11:51:59.091Z,19.59
2017-09-04T11:52:59.400Z,19.52
2017-09-04T11:53:59.392Z,19.55
2017-09-04T11:54:59.388Z,19.56
2017-09-04T11:55:59.068Z,19.55
2017-09-04T11:56:59.701Z,19.6
2017-09-04T11:57:59.376Z,19.62
2017-09-04T11:58:59.054Z,19.52
2017-09-04T11:59:59.363Z,19.47
2017-09-04T12:00:59.358Z,19.55
2017-09-04T12:01:59.665Z,19.55
2017-09-04T12:02:59.352Z,19.49
2017-09-04T12:03:59.027Z,19.59
2017-09-04T12:04:59.337Z,19.52
2017-09-04T12:05:59.019Z,19.52
2017-09-04T12:06:59.013Z,19.56
2017-09-04T12:07:59.315Z,19.45
2017-09-04T12:08:59.005Z,19.44
2017-09-04T12:09:59.313Z,19.45
2017-09-04T12:10:59.304Z,19.39
2017-09-04T12:11:58.984Z,19.47
2017-09-04T12:12:59.293Z,19.49
2017-09-04T12:13:58.976Z,19.48
2017-09-04T12:14:58.970Z,19.49
2017-09-04T12:15:59.278Z,19.52
2017-09-04T12:16:59.273Z,19.45
2017-09-04T12:17:59.369Z,19.52
2017-09-04T12:18:59.261Z,19.52
2017-09-04T12:19:58.944Z,19.59
2017-09-04T12:20:59.566Z,19.48
2017-09-04T12:21:59.344Z,19.47
2017-09-04T12:22:59.243Z,19.49
2017-09-04T12:23:59.235Z,19.59
2017-09-04T12:24:59.541Z,19.71
2017-09-04T12:25:59.235Z,19.71
2017-09-04T12:26:58.905Z,19.84
2017-09-04T12:27:59.316Z,19.77
2017-09-04T12:28:58.896Z,19.78
2017-09-04T12:29:59.521Z,19.81
2017-09-04T12:30:59.519Z,19.79
2017-09-04T12:31:59.512Z,19.9
2017-09-04T12:32:59.193Z,19.93
2017-09-04T12:33:59.284Z,19.93
2017-09-04T12:34:59.176Z,20.02
2017-09-04T12:35:59.174Z,20
2017-09-04T12:36:59.492Z,20.04
2017-09-04T12:37:59.482Z,19.99
2017-09-04T12:38:59.157Z,19.93
2017-09-04T12:39:59.468Z,19.93
2017-09-04T12:40:58.833Z,20.04
2017-09-04T12:41:58.829Z,20.17
2017-09-04T12:42:59.135Z,20.17
2017-09-04T12:43:59.135Z,20.22
2017-09-04T12:44:59.127Z,20.32
2017-09-04T12:45:59.441Z,20.3
2017-09-04T12:46:59.120Z,20.32
2017-09-04T12:47:59.434Z,20.26
2017-09-04T12:48:58.893Z,20.22
2017-09-04T12:49:59.100Z,20.21
2017-09-04T12:50:59.197Z,20.19
2017-09-04T12:51:59.091Z,20.14
2017-09-04T12:52:59.084Z,20.14
2017-09-04T12:53:59.599Z,20.14
2017-09-04T12:54:59.391Z,20.12